Time;durP1;ratioP1;P1;durP2;ratioP2;P2;SDS_P1;SDS_P2;PMS_P1;PMS_P2;Temp;Humidity;BMP_temperature;BMP_pressure;BME280_temperature;BME280_humidity;BME280_pressure;Samples;Min_cycle;Max_cycle;Signal;HPM_P1;HPM_P2
2022/08/29 00:00:11;;;;;;;12.05;10.85;;;16.80;99.90;;;;;;5063314;28;20028;-84
2022/08/29 00:02:37;;;;;;;12.68;11.38;;;16.80;99.90;;;;;;5062296;28;20024;-82
2022/08/29 00:05:03;;;;;;;11.68;10.57;;;16.70;99.90;;;;;;5062914;28;20494;-83
2022/08/29 00:07:29;;;;;;;10.93;9.88;;;16.70;99.90;;;;;;5082618;28;20032;-83
2022/08/29 00:09:55;;;;;;;10.35;9.30;;;16.70;99.90;;;;;;5081249;28;20099;-84
2022/08/29 00:12:20;;;;;;;11.13;9.93;;;16.70;99.90;;;;;;5062363;28;20025;-83
2022/08/29 00:14:46;;;;;;;11.35;10.25;;;16.70;99.90;;;;;;5064073;28;20028;-83
2022/08/29 00:17:12;;;;;;;11.75;10.65;;;16.70;99.90;;;;;;5082772;28;20150;-84
2022/08/29 00:19:37;;;;;;;10.82;9.70;;;16.70;99.90;;;;;;5062628;28;20167;-84
2022/08/29 00:22:03;;;;;;;10.63;9.63;;;16.60;99.90;;;;;;5080860;28;20062;-84
2022/08/29 00:24:29;;;;;;;11.68;9.73;;;16.60;99.90;;;;;;5080950;28;20028;-82
2022/08/29 00:26:55;;;;;;;10.07;9.18;;;16.60;99.90;;;;;;5080056;28;20032;-83
2022/08/29 00:29:20;;;;;;;10.50;9.43;;;16.50;99.90;;;;;;5080937;28;20031;-81
2022/08/29 00:31:46;;;;;;;9.95;8.95;;;16.50;99.90;;;;;;5088905;28;20013;-80
2022/08/29 00:34:12;;;;;;;9.13;8.23;;;16.50;99.90;;;;;;5056728;28;20041;-83
2022/08/29 00:36:37;;;;;;;9.50;8.60;;;16.50;99.90;;;;;;5062850;28;20493;-82
2022/08/29 00:39:04;;;;;;;8.50;7.70;;;16.50;99.90;;;;;;5072471;28;20029;-83
2022/08/29 00:41:29;;;;;;;8.35;7.55;;;16.50;99.90;;;;;;5092968;28;20024;-84
2022/08/29 00:44:05;;;;;;;8.20;7.40;;;16.50;99.90;;;;;;5089197;28;20095;-84
2022/08/29 00:47:10;;;;;;;7.15;6.45;;;16.50;99.90;;;;;;5087525;28;20035;-81
2022/08/29 00:49:48;;;;;;;6.75;6.15;;;16.50;99.90;;;;;;5057861;28;20032;-82
2022/08/29 00:52:43;;;;;;;5.55;5.00;;;16.50;99.90;;;;;;5074765;28;20025;-84
2022/08/29 00:55:15;;;;;;;6.38;5.40;;;16.50;99.90;;;;;;5087540;28;20021;-84
2022/08/29 00:57:47;;;;;;;5.40;4.78;;;16.50;99.90;;;;;;5067728;28;20044;-83
2022/08/29 01:00:16;;;;;;;4.68;4.30;;;16.50;99.90;;;;;;5066510;28;20032;-81
2022/08/29 01:02:42;;;;;;;4.50;4.10;;;16.40;99.90;;;;;;5082539;28;20043;-84
2022/08/29 01:05:14;;;;;;;4.68;4.28;;;16.30;99.90;;;;;;5065462;28;20160;-84
2022/08/29 01:07:40;;;;;;;4.38;4.00;;;16.30;99.90;;;;;;5063929;28;20047;-82
2022/08/29 01:12:41;;;;;;;4.50;4.20;;;16.20;99.90;;;;;;2879726;22;20557;-84
2022/08/29 01:24:44;;;;;;;4.90;4.50;;;16.10;99.90;;;;;;5033291;28;20025;-83
2022/08/29 01:27:13;;;;;;;4.50;4.10;;;16.10;99.90;;;;;;5050490;28;20029;-83
2022/08/29 01:29:39;;;;;;;4.55;4.25;;;16.10;99.90;;;;;;5066673;28;20050;-83
2022/08/29 01:32:05;;;;;;;5.38;4.88;;;16.10;99.90;;;;;;5045322;28;20421;-84
2022/08/29 01:34:31;;;;;;;5.47;4.97;;;16.00;99.90;;;;;;5047717;28;20037;-83
2022/08/29 01:37:04;;;;;;;5.80;5.30;;;16.00;99.90;;;;;;5047441;28;20037;-84
2022/08/29 01:39:36;;;;;;;5.40;4.80;;;16.10;99.90;;;;;;5028626;28;20027;-84
2022/08/29 01:42:09;;;;;;;5.20;4.78;;;16.00;99.90;;;;;;5047304;28;20199;-84
2022/08/29 01:44:35;;;;;;;5.00;4.60;;;16.00;99.90;;;;;;5036528;28;20029;-84
2022/08/29 01:47:01;;;;;;;5.05;4.65;;;16.00;99.90;;;;;;5051433;28;20028;-83
2022/08/29 01:49:27;;;;;;;5.05;4.55;;;16.00;99.90;;;;;;5067139;28;20028;-84
2022/08/29 01:51:52;;;;;;;6.38;5.78;;;16.00;99.90;;;;;;5047603;28;20040;-84
2022/08/29 01:54:19;;;;;;;6.18;5.57;;;16.00;99.90;;;;;;5049825;28;20029;-83
2022/08/29 01:56:48;;;;;;;5.80;5.30;;;16.00;99.90;;;;;;5049694;28;20029;-83
2022/08/29 01:59:17;;;;;;;4.90;4.53;;;15.90;99.90;;;;;;5067202;28;20021;-83
2022/08/29 02:01:48;;;;;;;5.05;4.65;;;15.90;99.90;;;;;;5067548;28;20079;-83
2022/08/29 02:04:15;;;;;;;5.07;4.57;;;15.90;99.90;;;;;;5050552;28;20027;-84
2022/08/29 02:06:41;;;;;;;4.90;4.40;;;15.90;99.90;;;;;;5051264;28;20262;-83
2022/08/29 02:09:07;;;;;;;4.80;4.30;;;15.90;99.90;;;;;;5066333;28;20017;-82
2022/08/29 02:11:35;;;;;;;4.88;4.40;;;15.90;99.90;;;;;;5047231;28;20056;-83
2022/08/29 02:14:03;;;;;;;4.47;4.10;;;15.90;99.90;;;;;;5065032;28;20032;-83
2022/08/29 02:16:29;;;;;;;4.22;3.83;;;15.90;99.90;;;;;;5048209;28;20074;-83
2022/08/29 02:18:55;;;;;;;4.57;4.18;;;15.90;99.90;;;;;;5048541;28;20119;-83
2022/08/29 02:21:25;;;;;;;4.45;4.05;;;15.90;99.90;;;;;;5047334;28;20053;-82
2022/08/29 02:23:51;;;;;;;4.15;3.75;;;15.90;99.90;;;;;;5065092;28;20037;-83
2022/08/29 02:26:20;;;;;;;4.03;3.72;;;15.80;99.90;;;;;;5064981;28;20135;-83
2022/08/29 02:28:49;;;;;;;6.15;4.57;;;15.80;99.90;;;;;;5047470;28;20040;-82
2022/08/29 02:31:15;;;;;;;4.63;4.22;;;15.80;99.90;;;;;;5064995;28;20036;-82
2022/08/29 02:33:41;;;;;;;3.22;2.95;;;15.70;99.90;;;;;;5049589;28;20021;-83
2022/08/29 02:36:07;;;;;;;4.13;3.83;;;15.70;99.90;;;;;;5064772;28;20097;-83
2022/08/29 02:38:34;;;;;;;3.78;3.47;;;15.70;99.90;;;;;;5064632;28;20029;-83
2022/08/29 02:41:00;;;;;;;4.35;3.95;;;15.70;99.90;;;;;;5064573;28;20025;-84
2022/08/29 02:43:27;;;;;;;3.83;3.50;;;15.80;99.90;;;;;;5048074;28;20047;-84
2022/08/29 02:45:53;;;;;;;4.22;3.80;;;15.80;99.90;;;;;;5046301;28;20087;-81
2022/08/29 02:48:20;;;;;;;4.18;3.80;;;15.80;99.90;;;;;;5064502;28;20021;-86
2022/08/29 02:50:49;;;;;;;3.95;3.55;;;15.80;99.90;;;;;;5050756;28;20029;-84
2022/08/29 02:53:17;;;;;;;4.45;3.97;;;15.70;99.90;;;;;;5069439;28;20005;-82
2022/08/29 02:55:43;;;;;;;5.28;4.53;;;15.70;99.90;;;;;;5059619;28;20043;-83
2022/08/29 02:58:08;;;;;;;4.65;3.70;;;15.70;99.90;;;;;;5059593;28;20037;-83
2022/08/29 03:00:35;;;;;;;4.47;3.78;;;15.70;99.90;;;;;;5058166;28;20041;-82
2022/08/29 03:03:02;;;;;;;4.22;3.83;;;15.70;99.90;;;;;;5059674;28;20036;-82
2022/08/29 03:05:31;;;;;;;5.60;4.30;;;15.70;99.90;;;;;;5050500;28;20009;-81
2022/08/29 03:07:57;;;;;;;5.10;4.25;;;15.70;99.90;;;;;;5074356;28;20037;-81
2022/08/29 03:10:23;;;;;;;5.05;4.55;;;15.60;99.90;;;;;;5075104;28;20029;-82
2022/08/29 03:12:50;;;;;;;4.28;3.88;;;15.60;99.90;;;;;;5049061;28;20028;-83
2022/08/29 03:15:16;;;;;;;4.45;3.80;;;15.60;99.90;;;;;;5063304;28;20483;-83
2022/08/29 03:17:42;;;;;;;6.38;4.40;;;15.60;99.90;;;;;;5061304;28;20037;-83
2022/08/29 03:20:10;;;;;;;5.20;4.10;;;15.60;99.90;;;;;;5042346;28;20032;-83
2022/08/29 03:22:36;;;;;;;3.92;3.53;;;15.70;99.90;;;;;;5061626;28;20037;-83
2022/08/29 03:25:03;;;;;;;4.60;4.20;;;15.60;99.90;;;;;;5043611;28;20029;-83
2022/08/29 03:27:33;;;;;;;6.38;4.43;;;15.60;99.90;;;;;;5042976;28;20100;-83
2022/08/29 03:29:59;;;;;;;4.18;3.78;;;15.60;99.90;;;;;;5045831;28;20013;-83
2022/08/29 03:32:26;;;;;;;3.40;3.10;;;15.60;99.90;;;;;;5042978;28;20090;-83
2022/08/29 03:34:53;;;;;;;3.97;3.65;;;15.60;99.90;;;;;;5034849;28;20132;-83
2022/08/29 03:37:19;;;;;;;3.35;3.05;;;15.60;99.90;;;;;;5046445;28;20032;-82
2022/08/29 03:39:44;;;;;;;3.42;3.13;;;15.60;99.90;;;;;;5044180;28;20088;-83
2022/08/29 03:42:10;;;;;;;3.22;3.03;;;15.50;99.90;;;;;;5061696;28;20021;-83
2022/08/29 03:44:38;;;;;;;3.47;3.17;;;15.60;99.90;;;;;;5062699;28;20084;-83
2022/08/29 03:47:05;;;;;;;2.85;2.58;;;15.60;99.90;;;;;;5061146;28;20107;-83
2022/08/29 03:49:31;;;;;;;3.05;2.85;;;15.50;99.90;;;;;;5061459;28;20049;-83
2022/08/29 03:51:57;;;;;;;4.38;3.08;;;15.50;99.90;;;;;;5060811;28;20025;-84
2022/08/29 03:54:23;;;;;;;3.08;2.67;;;15.50;99.90;;;;;;5060855;28;20044;-83
2022/08/29 03:56:49;;;;;;;3.63;3.33;;;15.50;99.90;;;;;;5060510;28;20025;-83
2022/08/29 03:59:16;;;;;;;2.92;2.72;;;15.50;99.90;;;;;;5062727;28;20060;-82
2022/08/29 04:01:42;;;;;;;2.90;2.70;;;15.50;99.90;;;;;;5040596;28;20035;-83
2022/08/29 04:05:05;;;;;;;2.80;2.60;;;15.50;99.90;;;;;;5034416;28;20044;-81
2022/08/29 04:06:53;;;;;;;4.07;2.60;;;15.50;99.90;;;;;;5047226;28;20021;-83
2022/08/29 04:09:19;;;;;;;3.90;2.92;;;15.50;99.90;;;;;;5056496;28;20025;-84
2022/08/29 04:11:45;;;;;;;3.00;2.80;;;15.50;99.90;;;;;;5041921;28;20033;-84
2022/08/29 04:14:11;;;;;;;2.80;2.60;;;15.40;99.90;;;;;;5041985;28;20016;-83
2022/08/29 04:16:37;;;;;;;3.65;3.13;;;15.40;99.90;;;;;;5058727;28;20024;-83
2022/08/29 04:19:03;;;;;;;3.67;2.95;;;15.40;99.90;;;;;;5059587;28;20017;-82
2022/08/29 04:21:29;;;;;;;3.22;2.92;;;15.40;99.90;;;;;;5024898;28;20021;-80
2022/08/29 04:24:03;;;;;;;3.03;2.83;;;15.40;99.90;;;;;;5041794;28;20036;-81
2022/08/29 04:26:29;;;;;;;2.60;2.40;;;15.40;99.90;;;;;;5038733;28;20116;-82
2022/08/29 04:28:55;;;;;;;2.85;2.65;;;15.40;99.90;;;;;;5039630;28;20053;-81
2022/08/29 04:31:21;;;;;;;2.60;2.40;;;15.40;99.90;;;;;;5040355;28;20025;-82
2022/08/29 04:33:49;;;;;;;2.70;2.50;;;15.40;99.90;;;;;;5027580;28;20103;-82
2022/08/29 04:36:15;;;;;;;2.90;2.70;;;15.40;99.90;;;;;;5037476;28;20028;-82
2022/08/29 04:38:40;;;;;;;2.60;2.40;;;15.40;99.90;;;;;;5073631;22;20036;-76
2022/08/29 04:41:08;;;;;;;2.60;2.40;;;15.40;99.90;;;;;;5019195;28;20504;-77
2022/08/29 04:43:34;;;;;;;2.60;2.40;;;15.50;99.90;;;;;;5001994;28;20023;-77
2022/08/29 04:46:00;;;;;;;2.95;2.65;;;15.50;99.90;;;;;;5011289;28;20022;-77
2022/08/29 04:48:27;;;;;;;2.97;2.78;;;15.50;99.90;;;;;;5011309;28;20415;-77
2022/08/29 04:50:55;;;;;;;3.05;2.85;;;15.50;99.90;;;;;;4987239;28;20027;-76
2022/08/29 04:53:22;;;;;;;2.97;2.65;;;15.60;99.90;;;;;;4988655;28;20045;-77
2022/08/29 04:56:00;;;;;;;2.83;2.40;;;15.60;99.90;;;;;;4977190;28;20122;-79
2022/08/29 04:58:27;;;;;;;2.38;2.20;;;15.60;99.90;;;;;;4986329;28;20034;-78
2022/08/29 05:00:54;;;;;;;3.00;2.78;;;15.70;99.90;;;;;;4991712;28;20113;-77
2022/08/29 05:03:20;;;;;;;3.08;2.80;;;15.70;99.90;;;;;;4992362;28;20015;-76
2022/08/29 05:05:55;;;;;;;2.80;2.60;;;15.80;99.90;;;;;;4986235;28;20034;-78
2022/08/29 05:08:22;;;;;;;2.63;2.42;;;15.80;99.90;;;;;;4993161;28;20019;-76
2022/08/29 05:10:47;;;;;;;2.75;2.55;;;15.90;99.90;;;;;;4988116;28;20023;-76
2022/08/29 05:13:13;;;;;;;2.95;2.75;;;16.00;99.90;;;;;;4988477;28;20041;-77
2022/08/29 05:15:39;;;;;;;3.92;2.92;;;16.00;99.90;;;;;;4997765;28;20587;-77
2022/08/29 05:18:05;;;;;;;3.53;3.15;;;16.10;99.90;;;;;;4992135;28;20038;-78
2022/08/29 05:20:31;;;;;;;3.97;3.35;;;16.10;99.90;;;;;;4991850;28;20421;-77
2022/08/29 05:22:57;;;;;;;4.00;3.08;;;16.10;99.90;;;;;;4974417;28;20448;-77
2022/08/29 05:25:23;;;;;;;3.40;3.13;;;16.10;99.90;;;;;;4994739;28;20071;-77
2022/08/29 05:27:48;;;;;;;5.40;3.20;;;16.10;99.90;;;;;;4995063;28;20027;-78
2022/08/29 05:30:15;;;;;;;3.83;3.45;;;16.20;99.90;;;;;;4995841;28;20032;-77
2022/08/29 05:32:41;;;;;;;3.53;3.22;;;16.30;99.90;;;;;;4990395;28;20030;-77
2022/08/29 05:35:08;;;;;;;4.35;3.20;;;16.30;99.90;;;;;;4986801;28;20034;-77
2022/08/29 05:37:33;;;;;;;3.53;3.22;;;16.40;99.90;;;;;;4994988;28;20373;-78
2022/08/29 05:39:59;;;;;;;3.47;3.15;;;16.40;99.90;;;;;;4995366;28;20026;-77
2022/08/29 05:42:26;;;;;;;3.83;3.10;;;16.50;99.90;;;;;;4995108;28;20038;-75
2022/08/29 05:44:55;;;;;;;3.47;3.00;;;16.50;99.90;;;;;;4995270;28;20018;-77
2022/08/29 05:47:21;;;;;;;3.72;3.03;;;16.60;99.90;;;;;;4993703;28;20077;-77
2022/08/29 05:49:48;;;;;;;2.92;2.72;;;16.70;99.90;;;;;;4994987;28;20386;-77
2022/08/29 05:52:16;;;;;;;3.30;3.00;;;16.70;99.90;;;;;;4995131;28;20481;-78
2022/08/29 05:54:43;;;;;;;3.78;3.45;;;16.80;99.90;;;;;;4995363;28;20040;-77
2022/08/29 05:57:10;;;;;;;3.33;3.00;;;16.80;99.90;;;;;;4997929;28;20025;-77
2022/08/29 05:59:36;;;;;;;3.10;2.80;;;16.80;99.90;;;;;;4995583;28;20026;-77
2022/08/29 06:02:03;;;;;;;2.85;2.65;;;16.90;99.90;;;;;;4997107;28;20394;-76
2022/08/29 06:04:29;;;;;;;3.03;2.78;;;17.00;99.90;;;;;;4986189;28;20029;-76
2022/08/29 06:06:55;;;;;;;2.65;2.45;;;17.10;99.90;;;;;;4975298;28;20023;-77
2022/08/29 06:09:20;;;;;;;2.83;2.42;;;17.10;99.90;;;;;;4974982;28;20027;-77
2022/08/29 06:11:49;;;;;;;3.47;3.17;;;17.20;99.90;;;;;;4977921;28;20023;-77
2022/08/29 06:14:15;;;;;;;3.05;2.85;;;17.30;99.90;;;;;;4992560;28;20038;-78
2022/08/29 06:16:42;;;;;;;3.30;2.55;;;17.40;99.90;;;;;;4994427;28;20026;-77
2022/08/29 06:19:08;;;;;;;3.25;2.95;;;17.40;99.90;;;;;;4995026;28;20030;-77
2022/08/29 06:21:34;;;;;;;2.63;2.42;;;17.50;99.90;;;;;;4996508;28;20034;-78
2022/08/29 06:23:59;;;;;;;3.65;2.30;;;17.60;99.90;;;;;;4995719;28;20034;-78
2022/08/29 06:26:25;;;;;;;2.72;2.53;;;17.60;99.90;;;;;;4994721;28;20041;-78
2022/08/29 06:28:51;;;;;;;2.60;2.40;;;17.80;99.90;;;;;;4994224;28;20029;-78
2022/08/29 06:31:25;;;;;;;2.63;2.42;;;17.80;99.90;;;;;;4993573;28;20037;-77
2022/08/29 06:33:52;;;;;;;2.60;2.40;;;18.00;99.90;;;;;;4993300;28;20554;-77
2022/08/29 06:36:18;;;;;;;2.40;2.20;;;18.00;99.90;;;;;;4977703;28;20523;-77
2022/08/29 06:38:44;;;;;;;3.22;2.00;;;18.00;99.90;;;;;;4975755;28;20023;-77
2022/08/29 06:41:12;;;;;;;2.58;2.38;;;18.10;99.90;;;;;;4993839;28;20041;-77
2022/08/29 06:43:39;;;;;;;2.70;2.50;;;18.20;99.90;;;;;;4994094;28;20029;-78
2022/08/29 06:46:06;;;;;;;3.35;2.17;;;18.30;99.90;;;;;;4993968;28;20527;-76
2022/08/29 06:48:33;;;;;;;2.35;2.15;;;18.30;99.90;;;;;;4976273;28;20026;-77
2022/08/29 06:51:02;;;;;;;2.38;2.17;;;18.30;99.90;;;;;;4994553;28;20053;-77
2022/08/29 06:53:28;;;;;;;2.40;2.20;;;18.40;99.90;;;;;;4996705;28;20052;-79
2022/08/29 06:55:54;;;;;;;2.90;2.70;;;18.50;99.90;;;;;;5012010;28;20046;-77
2022/08/29 06:58:20;;;;;;;5.80;4.28;;;18.60;99.90;;;;;;4996587;28;20026;-77
2022/08/29 07:00:45;;;;;;;4.82;3.65;;;18.60;99.90;;;;;;4994549;28;20105;-77
2022/08/29 07:03:11;;;;;;;3.47;3.17;;;18.70;99.90;;;;;;4995270;28;20354;-77
2022/08/29 07:05:37;;;;;;;3.65;3.33;;;18.70;99.90;;;;;;4985735;28;20037;-77
2022/08/29 07:08:03;;;;;;;3.72;3.40;;;18.90;99.90;;;;;;4997001;28;20054;-78
2022/08/29 07:10:29;;;;;;;4.85;3.45;;;19.00;99.90;;;;;;4995421;28;20022;-78
2022/08/29 07:12:54;;;;;;;4.88;4.38;;;19.00;99.90;;;;;;4994670;28;20452;-78
2022/08/29 07:15:21;;;;;;;6.07;5.47;;;19.10;99.90;;;;;;4993478;28;20026;-77
2022/08/29 07:17:48;;;;;;;5.18;4.35;;;19.10;99.90;;;;;;4993288;28;20045;-77
2022/08/29 07:20:14;;;;;;;5.80;5.03;;;19.20;99.90;;;;;;4993537;28;20034;-78
2022/08/29 07:22:40;;;;;;;6.07;5.10;;;19.30;99.90;;;;;;4994034;28;20026;-78
2022/08/29 07:25:07;;;;;;;5.45;4.95;;;19.40;99.90;;;;;;4993619;28;20105;-77
2022/08/29 07:27:33;;;;;;;4.35;3.95;;;19.50;99.90;;;;;;4992592;28;20018;-77
2022/08/29 07:30:01;;;;;;;4.30;3.90;;;19.60;99.90;;;;;;4994601;28;20080;-78
2022/08/29 07:32:27;;;;;;;6.38;5.45;;;19.70;99.90;;;;;;4991749;28;20126;-77
2022/08/29 07:34:53;;;;;;;5.05;4.60;;;19.90;99.90;;;;;;4986041;28;20057;-77
2022/08/29 07:37:19;;;;;;;5.65;5.05;;;19.90;99.90;;;;;;4993695;28;20022;-78
2022/08/29 07:39:44;;;;;;;5.22;4.72;;;20.00;99.90;;;;;;4992165;28;20034;-77
2022/08/29 07:42:10;;;;;;;8.27;5.78;;;20.10;99.90;;;;;;4979559;28;20135;-78
2022/08/29 07:44:36;;;;;;;4.95;4.45;;;20.20;99.90;;;;;;4974818;28;20437;-78
2022/08/29 07:47:02;;;;;;;4.55;3.95;;;20.30;99.70;;;;;;4988071;28;20026;-78
2022/08/29 07:49:29;;;;;;;4.82;4.38;;;20.40;99.40;;;;;;4994146;28;20019;-77
2022/08/29 07:51:55;;;;;;;5.55;4.75;;;20.50;99.00;;;;;;4992579;28;20079;-77
2022/08/29 07:54:21;;;;;;;8.23;4.03;;;20.70;98.70;;;;;;4992697;28;20054;-77
2022/08/29 07:56:50;;;;;;;5.30;4.78;;;20.80;98.10;;;;;;4992336;28;20026;-77
2022/08/29 07:59:17;;;;;;;7.45;5.57;;;20.80;97.70;;;;;;4992379;28;20030;-77
2022/08/29 08:01:43;;;;;;;4.80;4.40;;;20.90;97.20;;;;;;4992233;28;20027;-77
2022/08/29 08:04:09;;;;;;;4.07;3.72;;;21.00;97.20;;;;;;4992587;28;20025;-77
2022/08/29 08:06:36;;;;;;;4.50;4.10;;;21.20;97.00;;;;;;4979529;28;20393;-77
2022/08/29 08:09:06;;;;;;;5.15;4.45;;;21.40;96.30;;;;;;4996531;28;20473;-78
2022/08/29 08:11:32;;;;;;;5.43;4.18;;;21.70;95.60;;;;;;4996475;28;20026;-78
2022/08/29 08:13:58;;;;;;;4.55;4.10;;;21.90;94.60;;;;;;4995740;28;20094;-77
2022/08/29 08:16:25;;;;;;;5.13;4.38;;;22.00;94.00;;;;;;4993518;28;20081;-77
2022/08/29 08:18:55;;;;;;;4.47;4.07;;;22.20;93.40;;;;;;4975745;28;20035;-78
2022/08/29 08:21:22;;;;;;;4.40;3.95;;;22.50;92.80;;;;;;4975207;28;20034;-78
2022/08/29 08:23:47;;;;;;;5.22;4.68;;;22.50;92.40;;;;;;4956354;28;20050;-77
2022/08/29 08:26:14;;;;;;;4.72;4.32;;;22.60;91.90;;;;;;4958242;28;20027;-77
2022/08/29 08:28:41;;;;;;;4.97;4.57;;;22.60;91.90;;;;;;4991911;28;20354;-78
2022/08/29 08:31:09;;;;;;;8.63;6.57;;;22.80;91.50;;;;;;4996705;28;20137;-78
2022/08/29 08:33:39;;;;;;;6.38;5.43;;;22.90;90.40;;;;;;4992990;28;20027;-76
2022/08/29 08:36:27;;;;;;;6.38;5.28;;;23.00;90.30;;;;;;4989792;28;20069;-77
2022/08/29 08:38:54;;;;;;;6.47;5.75;;;22.80;90.50;;;;;;4988608;28;20074;-77
2022/08/29 08:41:25;;;;;;;7.75;6.32;;;22.90;90.50;;;;;;4992999;28;20042;-78
2022/08/29 08:44:00;;;;;;;7.28;5.53;;;23.00;89.70;;;;;;4993228;28;20029;-78
2022/08/29 08:46:48;;;;;;;5.07;4.57;;;23.00;89.70;;;;;;4997069;28;20034;-78
2022/08/29 08:49:37;;;;;;;6.70;5.13;;;23.00;89.90;;;;;;4993225;28;20342;-77
2022/08/29 08:52:09;;;;;;;5.00;4.50;;;23.20;89.00;;;;;;4993208;28;20030;-77
2022/08/29 08:54:52;;;;;;;10.85;5.03;;;23.30;88.50;;;;;;5011895;28;20021;-78
2022/08/29 08:57:20;;;;;;;4.93;4.18;;;23.30;88.00;;;;;;4998074;28;20066;-77
2022/08/29 08:59:54;;;;;;;5.35;4.93;;;23.60;87.70;;;;;;4997725;28;20330;-78
2022/08/29 09:02:33;;;;;;;5.25;4.82;;;23.90;86.50;;;;;;4997890;28;20106;-77
2022/08/29 09:05:23;;;;;;;6.95;5.95;;;24.10;84.40;;;;;;4983437;28;20370;-78
2022/08/29 09:08:10;;;;;;;8.05;4.97;;;24.20;83.60;;;;;;4997529;28;20028;-78
2022/08/29 09:11:08;;;;;;;6.95;5.95;;;24.20;82.30;;;;;;4978000;28;20045;-78
2022/08/29 09:13:55;;;;;;;5.15;4.68;;;24.20;80.60;;;;;;4977597;28;20033;-77
2022/08/29 09:16:28;;;;;;;5.15;4.65;;;24.30;81.80;;;;;;4977611;28;20027;-77
2022/08/29 09:18:59;;;;;;;6.30;4.63;;;24.60;80.60;;;;;;4981120;28;20022;-78
2022/08/29 09:21:26;;;;;;;6.40;5.80;;;24.50;80.90;;;;;;4996036;28;20030;-77
2022/08/29 09:23:56;;;;;;;6.22;5.63;;;24.70;80.10;;;;;;4995417;28;20176;-78
2022/08/29 09:26:22;;;;;;;7.82;5.53;;;24.70;77.10;;;;;;4995051;28;20101;-78
2022/08/29 09:28:48;;;;;;;7.40;5.65;;;24.40;78.20;;;;;;4994822;28;20409;-77
2022/08/29 09:31:33;;;;;;;5.85;5.30;;;24.20;79.60;;;;;;4994870;28;20023;-78
2022/08/29 09:34:04;;;;;;;5.82;4.95;;;24.30;79.80;;;;;;4990933;28;20022;-77
2022/08/29 09:36:41;;;;;;;5.82;5.20;;;24.50;77.80;;;;;;4993362;28;20023;-77
2022/08/29 09:39:23;;;;;;;4.95;4.55;;;24.20;78.20;;;;;;4994469;28;20045;-78
2022/08/29 09:41:54;;;;;;;4.78;4.38;;;24.50;79.80;;;;;;4995318;28;20027;-78
2022/08/29 09:44:30;;;;;;;7.07;4.60;;;24.90;77.60;;;;;;4995286;28;20109;-77
2022/08/29 09:47:20;;;;;;;16.08;5.60;;;25.00;76.50;;;;;;4995673;28;20113;-78
2022/08/29 09:50:10;;;;;;;7.05;5.55;;;24.70;77.90;;;;;;4986656;28;20675;-77
2022/08/29 09:52:53;;;;;;;9.75;5.78;;;24.30;78.10;;;;;;4995618;28;20029;-77
2022/08/29 09:55:29;;;;;;;7.35;5.35;;;23.80;79.20;;;;;;4995711;28;20393;-78
2022/08/29 09:58:19;;;;;;;5.35;4.85;;;23.70;81.90;;;;;;4996242;28;20029;-77
2022/08/29 10:01:05;;;;;;;5.38;4.88;;;24.20;81.10;;;;;;4995125;28;20018;-77
2022/08/29 10:03:42;;;;;;;6.22;5.55;;;25.10;78.20;;;;;;4975813;28;20042;-77
2022/08/29 10:06:15;;;;;;;6.57;5.13;;;25.50;73.90;;;;;;4989371;28;20504;-77
2022/08/29 10:08:53;;;;;;;5.63;5.00;;;25.60;73.30;;;;;;4995420;28;20113;-77
2022/08/29 10:11:24;;;;;;;7.00;5.25;;;25.80;72.90;;;;;;4994406;28;20053;-77
2022/08/29 10:14:14;;;;;;;7.37;6.27;;;25.80;72.20;;;;;;4994967;28;20022;-78
2022/08/29 10:16:55;;;;;;;6.72;5.78;;;25.70;71.90;;;;;;4992450;28;20068;-77
2022/08/29 10:19:26;;;;;;;6.05;4.78;;;25.60;73.00;;;;;;4986033;28;20027;-77
2022/08/29 10:21:54;;;;;;;4.88;4.47;;;25.60;73.50;;;;;;4987216;28;20035;-77
2022/08/29 10:24:37;;;;;;;5.60;5.07;;;25.70;72.80;;;;;;4994601;28;20027;-77
2022/08/29 10:27:38;;;;;;;4.90;4.40;;;26.00;70.80;;;;;;4994425;28;20742;-78
2022/08/29 10:30:12;;;;;;;5.35;4.80;;;26.20;70.70;;;;;;4995048;28;20105;-77
2022/08/29 10:32:38;;;;;;;4.82;4.35;;;26.30;69.40;;;;;;4977257;28;20081;-78
2022/08/29 10:35:28;;;;;;;5.47;4.93;;;26.10;69.80;;;;;;4986188;28;20500;-78
2022/08/29 10:38:35;;;;;;;5.82;4.93;;;25.50;71.20;;;;;;4993997;28;20023;-78
2022/08/29 10:41:05;;;;;;;5.47;5.07;;;25.10;72.40;;;;;;4994369;28;20093;-78
2022/08/29 10:43:39;;;;;;;8.15;5.05;;;24.70;73.90;;;;;;4993957;28;20105;-77
2022/08/29 10:46:38;;;;;;;6.20;4.65;;;24.30;74.40;;;;;;4994023;28;20038;-77
2022/08/29 10:49:28;;;;;;;5.30;4.80;;;24.00;75.50;;;;;;4993866;28;20068;-77
2022/08/29 10:52:15;;;;;;;5.28;4.65;;;24.20;76.70;;;;;;4994077;28;20030;-78
2022/08/29 10:55:10;;;;;;;4.70;4.30;;;24.40;75.90;;;;;;5012253;28;20026;-76
2022/08/29 10:58:11;;;;;;;5.78;5.10;;;24.80;74.00;;;;;;4999908;28;20056;-78
2022/08/29 11:00:47;;;;;;;6.18;4.97;;;25.20;71.90;;;;;;4980903;28;20042;-77
2022/08/29 11:03:21;;;;;;;4.68;4.28;;;25.10;72.20;;;;;;4994280;28;20033;-76
2022/08/29 11:05:58;;;;;;;4.47;4.07;;;25.40;72.80;;;;;;4983750;28;20544;-77
2022/08/29 11:08:36;;;;;;;4.80;4.40;;;26.10;71.10;;;;;;4978407;28;20031;-78
2022/08/29 11:11:02;;;;;;;4.70;4.30;;;26.50;69.90;;;;;;4980030;28;20482;-78
2022/08/29 11:13:39;;;;;;;4.63;4.22;;;27.00;68.70;;;;;;4991125;28;20114;-79
2022/08/29 11:16:21;;;;;;;4.53;4.13;;;27.40;66.00;;;;;;5000804;28;20041;-78
2022/08/29 11:18:49;;;;;;;4.60;4.25;;;27.60;64.30;;;;;;5002251;28;20022;-78
2022/08/29 11:22:04;;;;;;;4.10;3.80;;;28.00;63.00;;;;;;4996930;28;20037;-78
2022/08/29 11:24:35;;;;;;;4.20;3.80;;;28.30;62.30;;;;;;4956384;28;20397;-78
2022/08/29 11:27:28;;;;;;;3.95;3.60;;;28.50;60.50;;;;;;5000486;28;20049;-78
2022/08/29 11:30:06;;;;;;;4.60;3.75;;;28.40;58.80;;;;;;4997623;28;20054;-78
2022/08/29 11:32:57;;;;;;;7.22;3.97;;;28.00;59.50;;;;;;4980173;28;20026;-78
2022/08/29 11:35:44;;;;;;;5.20;4.25;;;27.90;59.80;;;;;;4992586;28;20496;-77
2022/08/29 11:38:12;;;;;;;4.18;3.72;;;27.90;57.90;;;;;;4993824;28;20477;-79
2022/08/29 11:41:06;;;;;;;5.13;4.63;;;27.80;59.50;;;;;;4995222;28;20085;-78
2022/08/29 11:43:47;;;;;;;4.28;3.88;;;28.10;59.90;;;;;;4997743;28;20026;-78
2022/08/29 11:46:14;;;;;;;6.22;3.58;;;28.50;59.90;;;;;;4995447;28;20089;-78
2022/08/29 11:48:51;;;;;;;4.53;4.13;;;28.70;59.10;;;;;;4997099;28;20469;-77
2022/08/29 11:51:35;;;;;;;4.60;4.22;;;28.80;57.70;;;;;;4994631;28;20034;-78
2022/08/29 11:54:22;;;;;;;4.70;4.15;;;28.40;57.10;;;;;;4994327;28;20073;-77
2022/08/29 11:56:48;;;;;;;4.75;4.03;;;27.80;59.50;;;;;;4993481;28;20034;-78
2022/08/29 11:59:43;;;;;;;4.65;4.22;;;27.80;59.60;;;;;;4993829;28;20022;-78
2022/08/29 12:02:09;;;;;;;7.32;4.05;;;28.20;58.80;;;;;;4997604;28;20037;-78
2022/08/29 12:04:56;;;;;;;5.53;4.30;;;28.40;58.00;;;;;;4996148;28;20150;-78
2022/08/29 12:07:43;;;;;;;4.68;4.28;;;28.60;57.90;;;;;;4986755;28;20034;-77
2022/08/29 12:10:23;;;;;;;6.63;4.07;;;28.50;57.60;;;;;;4981126;28;20023;-78
2022/08/29 12:12:51;;;;;;;6.50;3.90;;;28.10;58.00;;;;;;4974589;28;20105;-77
2022/08/29 12:15:26;;;;;;;4.82;4.30;;;27.60;59.60;;;;;;4975722;28;20400;-79
2022/08/29 12:17:53;;;;;;;5.00;4.60;;;27.60;59.90;;;;;;4995134;28;20026;-79
2022/08/29 12:20:40;;;;;;;5.93;4.47;;;27.10;60.30;;;;;;4995346;28;20052;-78
2022/08/29 12:23:12;;;;;;;5.00;4.50;;;26.50;63.10;;;;;;4993063;28;20018;-77
2022/08/29 12:25:47;;;;;;;5.38;4.97;;;26.00;64.80;;;;;;4993142;28;20026;-78
2022/08/29 12:28:29;;;;;;;7.35;4.88;;;25.60;66.00;;;;;;4994251;28;20073;-79
2022/08/29 12:30:58;;;;;;;4.25;3.83;;;25.30;66.40;;;;;;4992760;28;20062;-77
2022/08/29 12:33:35;;;;;;;4.30;3.80;;;25.10;66.90;;;;;;4993782;28;20026;-77
2022/08/29 12:36:25;;;;;;;4.82;4.32;;;25.00;67.10;;;;;;4992384;28;20061;-77
2022/08/29 12:39:20;;;;;;;4.50;4.05;;;24.90;67.30;;;;;;4989683;28;20389;-78
2022/08/29 12:42:23;;;;;;;4.35;3.63;;;25.00;66.50;;;;;;4955460;29;20063;-77
2022/08/29 12:45:11;;;;;;;4.45;4.05;;;25.30;66.10;;;;;;4958113;29;20048;-78
2022/08/29 12:47:43;;;;;;;4.65;4.10;;;25.90;65.00;;;;;;4960545;28;20035;-78
2022/08/29 12:50:24;;;;;;;4.25;3.92;;;26.50;61.80;;;;;;4977019;28;20027;-77
2022/08/29 12:53:14;;;;;;;4.45;4.05;;;27.00;61.40;;;;;;4978107;28;20015;-77
2022/08/29 12:55:46;;;;;;;4.40;4.00;;;27.30;59.80;;;;;;4999529;28;20026;-77
2022/08/29 12:58:12;;;;;;;;;;;27.40;58.90;;;;;;4959894;28;20099;-78
2022/08/29 13:00:40;;;;;;;5.13;4.40;;;27.50;59.50;;;;;;4957599;28;20297;-77
2022/08/29 13:03:16;;;;;;;4.43;4.03;;;28.10;58.30;;;;;;4964855;28;20122;-77
2022/08/29 13:05:42;;;;;;;6.50;4.05;;;28.30;57.20;;;;;;4968525;28;20037;-77
2022/08/29 13:08:26;;;;;;;8.15;3.40;;;28.50;57.00;;;;;;4975362;28;20037;-78
2022/08/29 13:11:08;;;;;;;6.68;3.78;;;28.60;56.40;;;;;;4976969;28;20097;-79
2022/08/29 13:13:35;;;;;;;5.13;4.43;;;29.00;56.60;;;;;;4978746;28;20465;-79
2022/08/29 13:16:03;;;;;;;5.18;4.63;;;29.00;55.30;;;;;;4977024;28;20038;-77
2022/08/29 13:18:31;;;;;;;4.85;3.88;;;28.50;56.30;;;;;;4976997;28;20105;-78